Flight Track Log - Related Links

Times and Time Zones

All times are in EDT time to prevent confusion due to time zone crossing. See the EJA930 flight status page for this flight to view local times or setup timezone preferences in your user account.


Time Position Orientation Groundspeed Altitude Reporting Facility
EDT Latitude Longitude Course Direction KTS MPH feet Rate Location/Type
Fri 02:33:36 PM 33.9306 -118.4461 227° Southwest 184 212 2,200  Level Los Angeles Center
Fri 02:34:38 PM 33.8836 -118.5069 227° Southwest 239 275 4,300 1,597 Climbing Los Angeles Center
Fri 02:35:40 PM 33.8161 -118.5164 187° South 271 312 5,500 1,694 Climbing Los Angeles Center
Fri 02:36:42 PM 33.7206 -118.5117 178° South 296 341 7,800 1,776 Climbing Los Angeles Center
Fri 02:37:45 PM 33.6703 -118.4328 127° Southeast 318 366 9,200 1,392 Climbing Los Angeles Center
Fri 02:38:47 PM 33.6694 -118.3219 90° East 337 388 10,700 1,355 Climbing Los Angeles Center
Fri 02:39:49 PM 33.6686 -118.1811 90° East 356 410 12,000 1,210 Climbing Los Angeles Center
Fri 02:40:51 PM 33.6669 -118.0561 91° East 371 427 13,200 1,210 Climbing Los Angeles Center
Fri 02:41:53 PM 33.6653 -117.9311 91° East 376 433 14,500 1,191 Climbing Los Angeles Center
Fri 02:43:07 PM 33.6631 -117.8067 91° East 374 430 15,900 1,139 Climbing Los Angeles Center
Fri 02:44:10 PM 33.6611 -117.6533 91° East 383 441 17,100 1,248 Climbing Los Angeles Center
Fri 02:45:12 PM 33.6581 -117.4975 91° East 391 450 18,500 1,258 Climbing Los Angeles Center
Fri 02:46:14 PM 33.6556 -117.3658 91° East 396 456 19,700 1,113 Climbing Los Angeles Center
Fri 02:47:16 PM 33.6536 -117.2331 91° East 399 459 20,800 1,065 Climbing Los Angeles Center
Fri 02:48:18 PM 33.6500 -117.0975 92° East 407 468 21,900 1,016 Climbing Los Angeles Center
Fri 02:49:20 PM 33.6472 -116.9608 91° East 410 472 22,900 1,113 Climbing Los Angeles Center
Fri 02:50:22 PM 33.6431 -116.8050 92° East 421 484 24,200 1,056 Climbing Los Angeles Center
Fri 02:51:25 PM 33.6408 -116.6608 91° East 429 494 25,100 960 Climbing Los Angeles Center
Fri 02:52:27 PM 33.6364 -116.5133 92° East 440 506 26,200 1,113 Climbing Los Angeles Center
Fri 02:53:29 PM 33.6333 -116.3667 91° East 440 506 27,400 1,210 Climbing Los Angeles Center
Fri 02:54:31 PM 33.6283 -116.1861 92° East 448 516 28,700 1,065 Climbing Los Angeles Center
Fri 02:55:33 PM 33.6719 -116.0447 70° East 450 518 29,600 871 Climbing Los Angeles Center
Fri 02:56:35 PM 33.7286 -115.9042 64° Northeast 462 532 30,500 1,065 Climbing Los Angeles Center
Fri 02:57:37 PM 33.7853 -115.7647 64° Northeast 464 534 31,800 1,403 Climbing Los Angeles Center
Fri 02:58:39 PM 33.8422 -115.6258 64° Northeast 462 532 33,400 1,536 Climbing Los Angeles Center
Fri 02:59:42 PM 33.8964 -115.4856 65° Northeast 463 533 35,000 1,824 Climbing Los Angeles Center
Fri 03:00:44 PM 33.9617 -115.3203 64° Northeast 458 527 37,200 1,645 Climbing Los Angeles Center
Fri 03:01:46 PM 34.0153 -115.1853 64° Northeast 449 517 38,400 1,306 Climbing Los Angeles Center
Fri 03:02:48 PM 34.0689 -115.0489 65° Northeast 450 518 39,900 1,210 Climbing Los Angeles Center
Fri 03:03:50 PM 34.1208 -114.9164 65° Northeast 441 507 40,900 532 Climbing Los Angeles Center
Fri 03:04:52 PM 34.1753 -114.7803 64° Northeast 446 513 41,000 48 Climbing Los Angeles Center
Fri 03:05:54 PM 34.2308 -114.6356 65° Northeast 470 541 41,000  Level Los Angeles Center
Fri 03:06:57 PM 34.3014 -114.4544 65° Northeast 494 568 41,000  Level Los Angeles Center
Fri 03:07:59 PM 34.3597 -114.3039 65° Northeast 496 571 41,000  Level Los Angeles Center
Fri 03:09:21 PM 34.4322 -114.1058 66° East 502 578 41,000  Level Albuquerque Center
Fri 03:10:23 PM 34.4689 -113.9458 74° East 497 572 41,000  Level Albuquerque Center
Fri 03:11:25 PM 34.5175 -113.7544 73° East 496 571 41,000  Level Albuquerque Center
Fri 03:12:27 PM 34.5556 -113.6003 73° East 496 571 41,000  Level Albuquerque Center
Fri 03:13:29 PM 34.5969 -113.4419 72° East 496 571 41,000  Level Albuquerque Center
Fri 03:14:31 PM 34.6306 -113.2803 76° East 500 575 41,000  Level Albuquerque Center
Fri 03:15:33 PM 34.6636 -113.1178 76° East 501 577 41,000  Level Albuquerque Center
Fri 03:16:34 PM 34.7075 -112.9239 75° East 503 579 41,000  Level Albuquerque Center
Fri 03:17:36 PM 34.7436 -112.7633 75° East 501 577 41,000  Level Albuquerque Center
Fri 03:18:38 PM 34.7806 -112.6028 74° East 500 575 41,000  Level Albuquerque Center
Fri 03:19:40 PM 34.8194 -112.4422 74° East 501 577 41,000  Level Albuquerque Center
Fri 03:20:42 PM 34.8664 -112.2869 70° East 498 573 41,000  Level Albuquerque Center
Fri 03:21:44 PM 34.9344 -112.1056 65° Northeast 497 572 41,000  Level Albuquerque Center
Fri 03:22:45 PM 34.9914 -111.9539 65° Northeast 498 573 41,000  Level Albuquerque Center
Fri 03:23:47 PM 35.0478 -111.8006 66° East 498 573 41,000  Level Albuquerque Center
Fri 03:24:49 PM 35.1114 -111.6347 65° Northeast 498 573 41,000  Level Albuquerque Center
Fri 03:25:51 PM 35.1919 -111.4933 55° Northeast 507 583 41,000  Level Albuquerque Center
Fri 03:26:53 PM 35.2761 -111.3547 53° Northeast 509 586 41,000  Level Albuquerque Center
Fri 03:27:54 PM 35.3611 -111.2158 53° Northeast 509 586 41,000  Level Albuquerque Center
Fri 03:28:56 PM 35.4469 -111.0744 53° Northeast 514 592 41,000 -48 Level Albuquerque Center
Fri 03:29:58 PM 35.5489 -110.9492 45° Northeast 527 606 40,900 -435 Descending Albuquerque Center
Fri 03:31:00 PM 35.6689 -110.7933 47° Northeast 525 604 40,100 -439 Descending Albuquerque Center
Fri 03:32:01 PM 35.7625 -110.6525 51° Northeast 530 610 40,000 -49 Descending Albuquerque Center
Fri 03:33:03 PM 35.8561 -110.5169 50° Northeast 523 602 40,000 118 Level Albuquerque Center
Fri 03:33:43 PM 35.9183 -110.4306 48° Northeast 529 609 40,200 588 Climbing Denver Center
Fri 03:34:45 PM 36.0186 -110.2622 54° Northeast 523 602 41,000 528 Climbing Denver Center
Fri 03:35:48 PM 36.0611 -110.0992 72° East 503 579 41,300 480 Climbing Denver Center
Fri 03:36:50 PM 36.1117 -109.9358 69° East 508 585 42,000 726 Climbing Denver Center
Fri 03:37:52 PM 36.1650 -109.7728 68° East 510 587 42,800 484 Climbing Denver Center
Fri 03:38:54 PM 36.2158 -109.6128 68° East 507 583 43,000 97 Climbing Denver Center
Fri 03:39:56 PM 36.2667 -109.4522 69° East 504 580 43,000  Level Denver Center
Fri 03:40:58 PM 36.3256 -109.2597 69° East 501 577 43,000  Level Denver Center
Fri 03:42:00 PM 36.3714 -109.1114 69° East 506 582 43,000  Level Denver Center
Fri 03:43:02 PM 36.4208 -108.9531 69° East 507 583 43,000  Level Denver Center
Fri 03:44:04 PM 36.4822 -108.7553 69° East 510 587 43,000  Level Denver Center
Fri 03:45:06 PM 36.5492 -108.6044 61° Northeast 498 573 43,000  Level Denver Center
Fri 03:46:08 PM 36.6164 -108.4503 61° Northeast 505 581 43,000  Level Denver Center
Fri 03:47:10 PM 36.6914 -108.3025 58° Northeast 505 581 43,000  Level Denver Center
Fri 03:48:12 PM 36.7728 -108.1506 56° Northeast 508 585 43,000  Level Denver Center
Fri 03:49:14 PM 36.8608 -107.9883 56° Northeast 506 582 43,000  Level Denver Center
Fri 03:50:16 PM 36.9356 -107.8531 55° Northeast 501 577 43,000  Level Denver Center
Fri 03:51:19 PM 37.0228 -107.6911 56° Northeast 501 577 43,000  Level Denver Center
Fri 03:52:21 PM 37.0944 -107.5522 57° Northeast 498 573 43,000  Level Denver Center
Fri 03:53:23 PM 37.1792 -107.3906 57° Northeast 497 572 43,000 48 Level Denver Center
Fri 03:54:25 PM 37.2500 -107.2494 58° Northeast 498 573 43,100 532 Climbing Denver Center
Fri 03:55:27 PM 37.3086 -107.0736 67° East 492 566 44,100 871 Climbing Denver Center
Fri 03:56:29 PM 37.3450 -106.9183 74° East 487 560 44,900 435 Climbing Denver Center
Fri 03:57:31 PM 37.3847 -106.7589 73° East 480 552 45,000 48 Climbing Denver Center
Fri 03:58:33 PM 37.4653 -106.6008 57° Northeast 496 571 45,000  Level Denver Center
Fri 03:59:35 PM 37.5614 -106.4933 42° Northeast 484 557 45,000  Level Denver Center
Fri 04:00:37 PM 37.6792 -106.3725 39° Northeast 487 560 45,000  Level Denver Center
Fri 04:01:39 PM 37.7781 -106.2667 40° Northeast 486 559 45,000  Level Denver Center
Fri 04:02:41 PM 37.8761 -106.1619 40° Northeast 481 554 45,000  Level Denver Center
Fri 04:03:43 PM 37.9844 -106.0286 44° Northeast 484 557 45,000  Level Denver Center
Fri 04:04:45 PM 38.0781 -105.9119 44° Northeast 490 564 45,000  Level Denver Center
Fri 04:05:47 PM 38.1828 -105.7731 46° Northeast 486 559 45,000  Level Denver Center
Fri 04:06:49 PM 38.2733 -105.6525 46° Northeast 490 564 45,000  Level Denver Center
Fri 04:07:51 PM 38.3733 -105.5022 50° Northeast 494 568 45,000  Level Denver Center
Fri 04:08:53 PM 38.4181 -105.3414 70° East 507 583 45,000  Level Denver Center
Fri 04:09:55 PM 38.4525 -105.1497 77° East 500 575 45,000  Level Denver Center
Fri 04:10:57 PM 38.4836 -104.9842 76° East 500 575 45,000  Level Denver Center
Fri 04:11:59 PM 38.5219 -104.7881 76° East 505 581 45,000  Level Denver Center
Fri 04:13:00 PM 38.5533 -104.6197 77° East 508 585 45,000  Level Denver Center
Fri 04:14:02 PM 38.5836 -104.4539 77° East 503 579 45,000  Level Denver Center
Fri 04:15:04 PM 38.6194 -104.2594 77° East 502 578 45,000  Level Denver Center
Fri 04:16:06 PM 38.6497 -104.0931 77° East 501 577 45,000  Level Denver Center
Fri 04:17:08 PM 38.6847 -103.9000 77° East 498 573 45,000  Level Denver Center
Fri 04:18:10 PM 38.7156 -103.7322 77° East 503 579 45,000  Level Denver Center
Fri 04:19:12 PM 38.7500 -103.5372 77° East 502 578 45,000  Level Denver Center
Fri 04:20:14 PM 38.7792 -103.3683 77° East 505 581 45,000  Level Denver Center
Fri 04:21:16 PM 38.8083 -103.1994 77° East 506 582 45,000  Level Denver Center
Fri 04:22:18 PM 38.8431 -103.0033 77° East 505 581 45,000  Level Denver Center
Fri 04:23:20 PM 38.8719 -102.8331 78° East 509 586 45,000  Level Denver Center
Fri 04:24:22 PM 38.9053 -102.6344 78° East 506 582 45,000  Level Denver Center
Fri 04:25:24 PM 38.9342 -102.4650 78° East 507 583 45,000  Level Denver Center
Fri 04:26:26 PM 38.9661 -102.2681 78° East 505 581 45,000  Level Denver Center
Fri 04:27:28 PM 38.9942 -102.0983 78° East 507 583 45,000  Level Denver Center
Fri 04:28:30 PM 39.0261 -101.8992 78° East 508 585 45,000  Level Denver Center
Fri 04:29:32 PM 39.0539 -101.7286 78° East 508 585 45,000  Level Denver Center
Fri 04:30:35 PM 39.0814 -101.5539 78° East 507 583 45,000  Level Denver Center
Fri 04:31:37 PM 39.1131 -101.3544 78° East 509 586 45,000  Level Denver Center
Fri 04:32:39 PM 39.1392 -101.1850 79° East 505 581 45,000  Level Denver Center
Fri 04:33:41 PM 39.1697 -100.9872 79° East 506 582 45,000  Level Denver Center
Fri 04:34:43 PM 39.1961 -100.8161 79° East 509 586 45,000  Level Denver Center
Fri 04:35:45 PM 39.2253 -100.6192 79° East 505 581 45,000  Level Denver Center
Fri 04:36:47 PM 39.2503 -100.4469 79° East 508 585 45,000  Level Denver Center
Fri 04:37:49 PM 39.2792 -100.2497 79° East 505 581 45,000  Level Denver Center
Fri 04:38:51 PM 39.3047 -100.0775 79° East 508 585 45,000  Level Denver Center
Fri 04:39:53 PM 39.3339 -99.8767 79° East 510 587 45,000  Level Denver Center
Fri 04:40:55 PM 39.3581 -99.7050 80° East 509 586 45,000  Level Denver Center
Fri 04:41:57 PM 39.3864 -99.5036 80° East 510 587 45,000 -290 Level Denver Center
Fri 04:42:59 PM 39.4100 -99.3300 80° East 512 589 44,400 -919 Descending Denver Center
Fri 04:44:01 PM 39.4386 -99.1239 80° East 521 600 43,100 -1,161 Descending Denver Center
Fri 04:45:03 PM 39.4614 -98.9553 80° East 526 605 42,000 -1,008 Descending Denver Center
Fri 04:46:06 PM 39.4867 -98.7694 80° East 527 606 41,000 -480 Descending Denver Center
Fri 04:47:08 PM 39.5158 -98.5422 80° East 532 612 41,000  Level Denver Center
Fri 04:47:43 PM 39.5283 -98.4464 80° East 532 612 41,000  Level Kansas City Center
Fri 04:48:45 PM 39.5536 -98.2522 80° East 539 620 41,000  Level Kansas City Center
Fri 04:49:47 PM 39.5778 -98.0594 81° East 542 624 41,000  Level Kansas City Center
Fri 04:50:49 PM 39.6050 -97.8500 80° East 541 623 41,000  Level Kansas City Center
Fri 04:51:44 PM 39.6269 -97.6608 81° East 542 624 41,000  Level Minneapolis Center
Fri 04:52:46 PM 39.6481 -97.4906 81° East 542 624 41,000  Level Minneapolis Center
Fri 04:53:48 PM 39.6761 -97.2594 81° East 543 625 41,000  Level Minneapolis Center
Fri 04:54:51 PM 39.6994 -97.0633 81° East 547 629 41,000  Level Minneapolis Center
Fri 04:55:53 PM 39.7217 -96.8672 82° East 550 633 41,000  Level Minneapolis Center
Fri 04:56:55 PM 39.7439 -96.6714 82° East 550 633 41,000  Level Minneapolis Center
Fri 04:57:57 PM 39.7658 -96.4753 82° East 552 635 41,000  Level Minneapolis Center
Fri 04:59:11 PM 39.7969 -96.1983 82° East 555 639 41,000  Level Minneapolis Center
Fri 05:00:07 PM 39.8178 -96.0119 82° East 555 639 41,000  Level Kansas City Center
Fri 05:01:10 PM 39.8372 -95.8211 82° East 555 639 41,000  Level Kansas City Center
Fri 05:02:12 PM 39.8581 -95.6294 82° East 556 640 41,000  Level Kansas City Center
Fri 05:03:14 PM 39.8808 -95.4083 82° East 552 635 41,000  Level Kansas City Center
Fri 05:04:16 PM 39.9006 -95.2164 82° East 555 639 41,000  Level Kansas City Center
Fri 05:05:18 PM 39.9231 -94.9950 82° East 552 635 41,000  Level Kansas City Center
Fri 05:06:20 PM 39.9417 -94.8031 83° East 554 638 41,000  Level Kansas City Center
Fri 05:07:22 PM 39.9631 -94.5803 83° East 554 638 41,000  Level Kansas City Center
Fri 05:08:24 PM 39.9814 -94.3875 83° East 556 640 41,000  Level Kansas City Center
Fri 05:09:26 PM 39.9992 -94.1944 83° East 558 642 41,000  Level Kansas City Center
Fri 05:10:28 PM 40.0178 -93.9586 84° East 569 655 41,000  Level Kansas City Center
Fri 05:11:30 PM 40.0364 -93.7600 83° East 563 648 41,000  Level Kansas City Center
Fri 05:12:32 PM 40.0525 -93.5625 84° East 555 639 41,000  Level Kansas City Center
Fri 05:13:34 PM 40.0708 -93.3644 83° East 556 640 41,000  Level Kansas City Center
Fri 05:14:36 PM 40.0900 -93.1656 83° East 558 642 41,000  Level Kansas City Center
Fri 05:15:38 PM 40.1047 -92.9389 85° East 558 642 41,000  Level Kansas City Center
Fri 05:16:40 PM 40.1222 -92.7128 84° East 560 644 41,000  Level Kansas City Center
Fri 05:17:42 PM 40.1436 -92.5186 82° East 562 647 41,000 -726 Level Kansas City Center
Fri 05:18:44 PM 40.1919 -92.3056 73° East 567 652 39,500 -2,419 Descending Kansas City Center
Fri 05:19:46 PM 40.2303 -92.1250 74° East 536 617 36,000 -2,976 Descending Kansas City Center
Fri 05:20:49 PM 40.2664 -91.9414 75° East 527 606 33,300 -2,352 Descending Kansas City Center
Fri 05:21:51 PM 40.3058 -91.7511 75° East 541 623 31,100 -1,113 Descending Kansas City Center
Fri 05:22:53 PM 40.3525 -91.5161 75° East 558 642 31,000 -48 Descending Kansas City Center
Fri 05:23:55 PM 40.3908 -91.3228 75° East 557 641 31,000  Level Kansas City Center
Fri 05:24:57 PM 40.4286 -91.1289 76° East 556 640 31,000  Level Kansas City Center
Fri 05:25:27 PM 40.4442 -91.0492 76° East 557 641 31,000 -522 Level Chicago Center
Fri 05:26:29 PM 40.5008 -90.8181 72° East 553 636 30,200 -1,065 Descending Chicago Center
Fri 05:27:31 PM 40.5756 -90.6458 60° Northeast 542 624 28,800 -1,403 Descending Chicago Center
Fri 05:28:33 PM 40.6489 -90.4772 60° Northeast 533 613 27,300 -1,403 Descending Chicago Center
Fri 05:29:35 PM 40.7211 -90.3125 60° Northeast 521 600 25,900 -1,355 Descending Chicago Center
Fri 05:30:37 PM 40.7881 -90.1478 62° Northeast 509 586 24,500 -1,452 Descending Chicago Center
Fri 05:31:39 PM 40.8597 -89.9906 59° Northeast 503 579 22,900 -2,371 Descending Chicago Center
Fri 05:32:41 PM 40.9511 -89.8244 54° Northeast 457 526 19,600 -2,806 Descending Chicago Center
Fri 05:33:43 PM 41.0214 -89.7181 49° Northeast 445 512 17,100 -2,855 Descending Chicago Center
Fri 05:34:45 PM 41.1081 -89.5842 49° Northeast 394 453 13,700 -2,129 Descending Chicago Center
Fri 05:36:00 PM 41.1846 -89.3831 63° Northeast  Level Estimated
Fri 05:36:49 PM 41.2522 -89.3558 63° Northeast 404 465 10,500  Level Chicago Center
Fri 05:37:51 PM 41.3097 -89.2222 60° Northeast 414 476 10,100 -194 Descending Chicago Center
Fri 05:38:53 PM 41.3506 -89.0628 71° East 416 479 10,100 -48 Level Chicago Center
Fri 05:39:55 PM 41.3894 -88.9189 70° East 415 478 10,000 -581 Descending Chicago Center
Fri 05:40:57 PM 41.4158 -88.8050 73° East 323 372 8,900 -1,403 Descending Chicago Center
Fri 05:41:59 PM 41.4203 -88.6906 87° East 314 361 7,100 -1,403 Descending Chicago Center
Fri 05:43:01 PM 41.4469 -88.5658 74° East 300 345 6,000 -629 Descending Chicago Center
Fri 05:44:03 PM 41.4856 -88.4708 61° Northeast 295 339 5,800 -480 Descending Chicago Center
Fri 05:45:06 PM 41.5128 -88.3719 70° East 287 330 5,000 -387 Descending Chicago Center
Fri 05:46:07 PM 41.5353 -88.2700 74° East 287 330 5,000  Level Chicago Center
Fri 05:47:10 PM 41.5575 -88.1669 74° East 288 331 5,000  Level Chicago Center
Fri 05:48:12 PM 41.5733 -88.0608 79° East 290 334 5,000  Level Chicago Center
Fri 05:49:14 PM 41.5700 -87.9497 92° East 295 339 5,000  Level Chicago Center
Fri 05:50:16 PM 41.5672 -87.8411 92° East 294 338 5,000  Level Chicago Center
Fri 05:51:18 PM 41.5728 -87.7128 87° East 288 331 5,000 -145 Level Chicago Center
Fri 05:52:20 PM 41.6056 -87.6247 64° Northeast 277 319 4,700 -823 Descending Chicago Center
Fri 05:53:22 PM 41.6547 -87.5842 32° Northeast 242 278 3,300 -871 Descending Chicago Center
Fri 05:54:24 PM 41.6942 -87.6225 324° Northwest 201 231 2,900 -532 Descending Chicago Center
Fri 05:55:26 PM 41.7244 -87.6675 312° West 177 204 2,200 -726 Descending Chicago Center
Fri 05:56:28 PM 41.7536 -87.7086 314° West 149 171 1,400 -629 Descending Chicago Center
Fri 05:57:30 PM 41.7783 -87.7436 313° West 134 154 900 -484 Descending Chicago Center

Login

Don't have an account? Register now (free) for customized features, flight alerts, and more!